createdAt,value
2023-02-11T00:01:45.031Z,28.50
2023-02-11T00:04:11.507Z,27.63
2023-02-11T00:06:38.069Z,26.80
2023-02-11T00:09:04.882Z,27.93
2023-02-11T00:11:31.624Z,25.83
2023-02-11T00:13:59.281Z,27.83
2023-02-11T00:16:25.796Z,29.03
2023-02-11T00:18:54.047Z,31.30
2023-02-11T00:21:24.590Z,28.10
2023-02-11T00:23:51.364Z,29.67
2023-02-11T00:26:27.880Z,28.23
2023-02-11T00:28:54.486Z,26.73
2023-02-11T00:31:22.521Z,25.07
2023-02-11T00:33:49.119Z,23.77
2023-02-11T00:36:20.242Z,29.37
2023-02-11T00:38:47.345Z,27.15
2023-02-11T00:41:14.324Z,27.77
2023-02-11T00:43:41.187Z,27.60
2023-02-11T00:46:08.228Z,26.87
2023-02-11T00:48:34.803Z,23.83
2023-02-11T00:51:01.727Z,27.00
2023-02-11T00:53:28.182Z,26.17
2023-02-11T00:55:54.656Z,26.27
2023-02-11T00:58:22.400Z,27.77
2023-02-11T01:00:49.287Z,27.30
2023-02-11T01:03:15.854Z,28.57
2023-02-11T01:05:42.364Z,26.70
2023-02-11T01:08:08.880Z,31.00
2023-02-11T01:10:35.314Z,27.73
2023-02-11T01:13:02.458Z,27.67
2023-02-11T01:15:29.012Z,27.57
2023-02-11T01:17:55.566Z,24.20
2023-02-11T01:20:24.155Z,24.80
2023-02-11T01:22:50.653Z,28.40
2023-02-11T01:25:17.251Z,24.43
2023-02-11T01:27:43.742Z,26.17
2023-02-11T01:30:12.239Z,27.17
2023-02-11T01:32:38.909Z,27.53
2023-02-11T01:35:05.805Z,25.30
2023-02-11T01:37:33.354Z,26.07
2023-02-11T01:40:01.296Z,25.70
2023-02-11T01:42:27.819Z,28.50
2023-02-11T01:44:54.869Z,24.60
2023-02-11T01:47:21.796Z,26.10
2023-02-11T01:49:52.993Z,25.93
2023-02-11T01:55:07.791Z,26.67
2023-02-11T01:57:36.082Z,25.53
2023-02-11T02:00:20.385Z,24.17
2023-02-11T02:03:01.868Z,23.70
2023-02-11T02:05:51.901Z,23.23
2023-02-11T02:08:18.687Z,25.20
2023-02-11T02:10:53.191Z,28.57
2023-02-11T02:13:19.785Z,26.37
2023-02-11T02:15:57.009Z,27.57
2023-02-11T02:18:42.332Z,22.53
2023-02-11T02:21:27.624Z,25.53
2023-02-11T02:24:09.022Z,25.40
2023-02-11T02:26:54.430Z,28.17
2023-02-11T02:29:20.924Z,28.73
2023-02-11T02:31:56.816Z,23.13
2023-02-11T02:34:35.046Z,31.63
2023-02-11T02:37:09.081Z,29.40
2023-02-11T02:39:36.560Z,26.67
2023-02-11T02:42:04.286Z,25.50
2023-02-11T02:44:31.009Z,25.47
2023-02-11T02:46:57.761Z,25.97
2023-02-11T02:49:24.340Z,25.53
2023-02-11T02:52:02.877Z,26.57
2023-02-11T02:54:41.416Z,26.13
2023-02-11T02:57:28.734Z,28.30
2023-02-11T03:00:10.499Z,27.37
2023-02-11T03:02:55.637Z,23.63
2023-02-11T03:05:30.819Z,24.83
2023-02-11T03:08:09.305Z,26.40
2023-02-11T03:10:42.412Z,27.20
2023-02-11T03:13:09.136Z,24.50
2023-02-11T03:15:38.740Z,25.37
2023-02-11T03:18:06.740Z,20.60
2023-02-11T03:20:36.498Z,20.73
2023-02-11T03:23:08.798Z,26.30
2023-02-11T03:25:37.376Z,30.30
2023-02-11T03:28:07.399Z,28.27
2023-02-11T03:30:39.046Z,25.30
2023-02-11T03:33:17.694Z,25.80
2023-02-11T03:36:04.606Z,28.50
2023-02-11T03:38:33.129Z,30.20
2023-02-11T03:41:02.096Z,26.90
2023-02-11T03:43:33.991Z,26.07
2023-02-11T03:46:01.368Z,25.43
2023-02-11T03:48:32.628Z,28.00
2023-02-11T03:51:01.059Z,27.30
2023-02-11T03:53:27.572Z,27.73
2023-02-11T03:55:55.260Z,24.10
2023-02-11T03:58:21.854Z,27.57
2023-02-11T04:00:48.441Z,23.23
2023-02-11T04:03:15.021Z,26.00
2023-02-11T04:05:41.691Z,27.20
2023-02-11T04:08:08.618Z,25.63
2023-02-11T04:10:35.459Z,26.03
2023-02-11T04:13:15.150Z,28.57
2023-02-11T04:15:41.814Z,24.70
2023-02-11T04:18:08.389Z,23.70
2023-02-11T04:20:34.914Z,24.40
2023-02-11T04:23:01.413Z,21.40
2023-02-11T04:25:27.908Z,23.70
2023-02-11T04:27:54.435Z,22.17
2023-02-11T04:30:20.904Z,21.37
2023-02-11T04:32:47.384Z,20.23
2023-02-11T04:35:14.315Z,19.80
2023-02-11T04:37:40.900Z,21.70
2023-02-11T04:40:07.544Z,18.97
2023-02-11T04:42:34.056Z,19.97
2023-02-11T04:45:00.507Z,17.03
2023-02-11T04:47:27.091Z,17.90
2023-02-11T04:49:53.603Z,19.83
2023-02-11T04:52:20.113Z,18.13
2023-02-11T04:54:46.580Z,17.07
2023-02-11T04:57:13.064Z,20.17
2023-02-11T04:59:40.587Z,17.80
2023-02-11T05:02:07.021Z,17.37
2023-02-11T05:04:33.601Z,25.37
2023-02-11T05:07:00.110Z,21.30
2023-02-11T05:09:26.857Z,19.60
2023-02-11T05:11:53.656Z,20.40
2023-02-11T05:14:20.334Z,20.57
2023-02-11T05:16:46.934Z,17.73
2023-02-11T05:19:13.471Z,18.60
2023-02-11T05:21:41.047Z,20.07
2023-02-11T05:24:12.167Z,15.70
2023-02-11T05:26:38.713Z,18.57
2023-02-11T05:29:05.237Z,19.37
2023-02-11T05:31:32.720Z,16.50
2023-02-11T05:33:59.228Z,20.53
2023-02-11T05:36:25.728Z,17.70
2023-02-11T05:38:52.192Z,16.47
2023-02-11T05:41:19.226Z,14.47
2023-02-11T05:43:47.712Z,14.77
2023-02-11T05:46:14.248Z,12.73
2023-02-11T05:48:40.772Z,14.47
2023-02-11T05:51:07.376Z,16.83
2023-02-11T05:53:33.838Z,15.70
2023-02-11T05:56:00.415Z,14.83
2023-02-11T05:58:27.205Z,14.57
2023-02-11T06:00:53.633Z,16.80
2023-02-11T06:03:20.341Z,18.53
2023-02-11T06:05:46.848Z,18.20
2023-02-11T06:08:13.428Z,16.47
2023-02-11T06:10:42.463Z,14.13
2023-02-11T06:13:09.059Z,15.17
2023-02-11T06:15:35.479Z,13.33
2023-02-11T06:18:01.985Z,18.53
2023-02-11T06:20:28.626Z,18.47
2023-02-11T06:22:55.279Z,14.57
2023-02-11T06:25:21.851Z,17.07
2023-02-11T06:27:48.450Z,14.80
2023-02-11T06:30:14.961Z,20.07
2023-02-11T06:32:44.889Z,16.57
2023-02-11T06:35:12.924Z,13.77
2023-02-11T06:37:39.803Z,13.20
2023-02-11T06:40:06.752Z,14.70
2023-02-11T06:42:33.173Z,14.27
2023-02-11T06:44:59.708Z,16.00
2023-02-11T06:47:26.234Z,18.27
2023-02-11T06:49:52.760Z,22.97
2023-02-11T06:52:19.213Z,21.10
2023-02-11T06:54:45.722Z,18.80
2023-02-11T06:57:12.247Z,18.07
2023-02-11T06:59:38.758Z,21.87
2023-02-11T07:02:05.335Z,14.30
2023-02-11T07:04:31.781Z,16.83
2023-02-11T07:06:58.245Z,16.83
2023-02-11T07:09:24.771Z,15.50
2023-02-11T07:11:51.288Z,15.53
2023-02-11T07:14:17.770Z,17.73
2023-02-11T07:16:44.290Z,16.80
2023-02-11T07:19:10.818Z,13.87
2023-02-11T07:21:37.374Z,15.63
2023-02-11T07:24:08.285Z,15.47
2023-02-11T07:26:37.080Z,20.23
2023-02-11T07:29:03.544Z,27.83
2023-02-11T07:31:30.750Z,17.10
2023-02-11T07:33:59.755Z,18.37
2023-02-11T07:36:27.274Z,18.60
2023-02-11T07:38:53.973Z,20.60
2023-02-11T07:41:21.917Z,18.73
2023-02-11T07:43:48.550Z,24.77
2023-02-11T07:46:19.545Z,26.90
2023-02-11T07:48:46.547Z,22.77
2023-02-11T07:51:16.985Z,21.67
2023-02-11T07:53:43.701Z,16.65
2023-02-11T07:56:10.851Z,21.10
2023-02-11T07:58:37.732Z,25.10
2023-02-11T08:01:05.377Z,22.33
2023-02-11T08:03:32.148Z,20.27
2023-02-11T08:05:58.959Z,19.73
2023-02-11T08:08:28.382Z,16.37
2023-02-11T08:10:54.927Z,19.40
2023-02-11T08:13:21.455Z,21.87
2023-02-11T08:15:48.275Z,25.33
2023-02-11T08:18:14.919Z,21.43
2023-02-11T08:20:41.649Z,21.03
2023-02-11T08:23:08.195Z,13.67
2023-02-11T08:25:34.734Z,14.90
2023-02-11T08:28:01.257Z,14.17
2023-02-11T08:30:27.852Z,15.47
2023-02-11T08:32:54.361Z,17.83
2023-02-11T08:35:20.915Z,22.47
2023-02-11T08:37:47.502Z,26.87
2023-02-11T08:40:14.030Z,26.03
2023-02-11T08:42:40.560Z,21.93
2023-02-11T08:45:08.229Z,21.10
2023-02-11T08:47:34.940Z,16.40
2023-02-11T08:50:01.560Z,22.37
2023-02-11T08:52:28.054Z,20.27
2023-02-11T08:54:54.549Z,16.80
2023-02-11T08:57:21.048Z,18.23
2023-02-11T08:59:47.516Z,18.23
2023-02-11T09:02:14.584Z,20.93
2023-02-11T09:04:41.123Z,21.63
2023-02-11T09:07:07.747Z,18.30
2023-02-11T09:09:34.270Z,23.93
2023-02-11T09:12:01.384Z,21.53
2023-02-11T09:14:27.962Z,20.63
2023-02-11T09:16:54.452Z,20.73
2023-02-11T09:19:21.311Z,19.47
2023-02-11T09:21:47.934Z,20.90
2023-02-11T09:24:15.013Z,20.47
2023-02-11T09:26:41.746Z,38.30
2023-02-11T09:29:08.297Z,24.17
2023-02-11T09:31:35.050Z,23.97
2023-02-11T09:34:04.339Z,14.17
2023-02-11T09:36:37.246Z,11.03
2023-02-11T09:39:04.435Z,10.50
2023-02-11T09:41:40.180Z,10.63
2023-02-11T09:44:08.084Z,10.63
2023-02-11T09:46:36.456Z,9.87
2023-02-11T09:49:04.731Z,10.00
2023-02-11T09:51:43.421Z,10.63
2023-02-11T09:54:36.041Z,11.40
2023-02-11T09:57:02.630Z,12.37
2023-02-11T09:59:29.178Z,13.47
2023-02-11T10:02:13.332Z,15.57
2023-02-11T10:04:58.151Z,12.00
2023-02-11T10:07:44.909Z,10.40
2023-02-11T10:10:26.556Z,10.57
2023-02-11T10:13:05.203Z,12.77
2023-02-11T10:15:46.907Z,11.47
2023-02-11T10:18:31.594Z,13.63
2023-02-11T10:21:03.939Z,13.10
2023-02-11T10:23:33.612Z,16.00
2023-02-11T10:26:00.598Z,12.97
2023-02-11T10:28:31.221Z,22.50
2023-02-11T10:30:59.502Z,21.02
2023-02-11T10:33:26.115Z,14.00
2023-02-11T10:35:52.845Z,17.40
2023-02-11T10:38:19.319Z,15.67
2023-02-11T10:40:45.865Z,13.70
2023-02-11T10:43:16.154Z,13.87
2023-02-11T10:45:44.622Z,13.90
2023-02-11T10:48:29.825Z,12.40
2023-02-11T10:51:19.635Z,14.43
2023-02-11T10:53:47.101Z,12.37
2023-02-11T10:56:22.354Z,11.87
2023-02-11T10:59:05.552Z,11.90
2023-02-11T11:01:39.992Z,11.97
2023-02-11T11:04:06.707Z,14.20
2023-02-11T11:06:33.584Z,13.07
2023-02-11T11:09:01.088Z,13.17
2023-02-11T11:11:27.719Z,12.93
2023-02-11T11:13:59.119Z,13.93
2023-02-11T11:16:25.785Z,13.00
2023-02-11T11:18:53.941Z,12.40
2023-02-11T11:21:22.995Z,11.33
2023-02-11T11:23:51.467Z,12.73
2023-02-11T11:26:18.622Z,11.83
2023-02-11T11:29:02.416Z,11.33
2023-02-11T11:31:34.014Z,12.30
2023-02-11T11:34:03.336Z,10.23
2023-02-11T11:36:48.116Z,12.60
2023-02-11T11:39:25.240Z,14.10
2023-02-11T11:41:53.453Z,13.13
2023-02-11T11:44:28.985Z,11.40
2023-02-11T11:47:07.374Z,13.60
2023-02-11T11:49:37.701Z,12.67
2023-02-11T11:52:13.986Z,11.15
2023-02-11T11:54:42.875Z,12.57
2023-02-11T11:57:15.242Z,10.17
2023-02-11T11:59:41.743Z,11.60
2023-02-11T12:02:17.287Z,9.97
2023-02-11T12:04:55.730Z,9.90
2023-02-11T12:07:26.039Z,10.27
2023-02-11T12:10:07.893Z,11.27
2023-02-11T12:12:46.981Z,9.67
2023-02-11T12:15:32.505Z,9.20
2023-02-11T12:18:14.018Z,9.60
2023-02-11T12:20:55.415Z,9.60
2023-02-11T12:26:00.339Z,15.80
2023-02-11T12:28:32.444Z,7.83
2023-02-11T12:31:05.507Z,8.23
2023-02-11T12:33:50.660Z,9.37
2023-02-11T12:36:20.674Z,9.27
2023-02-11T12:39:07.546Z,10.05
2023-02-11T12:42:01.172Z,9.32
2023-02-11T12:44:41.759Z,10.83
2023-02-11T12:47:20.527Z,10.00
2023-02-11T12:49:57.683Z,8.97
2023-02-11T12:52:34.245Z,8.65
2023-02-11T12:55:03.267Z,8.30
2023-02-11T12:57:32.105Z,8.25
2023-02-11T13:00:05.039Z,18.02
2023-02-11T13:02:34.745Z,8.55
2023-02-11T13:05:19.683Z,9.98
2023-02-11T13:07:47.530Z,9.05
2023-02-11T13:10:14.033Z,14.57
2023-02-11T13:13:02.365Z,10.75
2023-02-11T13:15:30.249Z,9.20
2023-02-11T13:18:04.627Z,10.85
2023-02-11T13:20:43.605Z,9.27
2023-02-11T13:23:16.128Z,9.18
2023-02-11T13:26:08.777Z,9.52
2023-02-11T13:28:40.750Z,9.35
2023-02-11T13:31:08.719Z,10.02
2023-02-11T13:33:45.807Z,13.57
2023-02-11T13:36:14.598Z,11.15
2023-02-11T13:38:41.658Z,9.35
2023-02-11T13:41:16.711Z,9.43
2023-02-11T13:43:43.773Z,9.75
2023-02-11T13:46:15.047Z,9.45
2023-02-11T13:51:09.918Z,9.50
2023-02-11T13:53:48.735Z,11.20
2023-02-11T13:56:24.512Z,10.88
2023-02-11T13:58:51.352Z,19.33
2023-02-11T14:01:38.880Z,10.93
2023-02-11T14:04:34.783Z,14.90
2023-02-11T14:07:39.719Z,25.80
2023-02-11T14:10:26.313Z,13.82
2023-02-11T14:13:06.438Z,10.38
2023-02-11T14:15:39.605Z,8.80
2023-02-11T14:18:24.907Z,11.98
2023-02-11T14:20:53.740Z,12.57
2023-02-11T14:23:22.529Z,11.05
2023-02-11T14:25:55.678Z,11.30
2023-02-11T14:28:24.588Z,10.18
2023-02-11T14:30:59.866Z,11.63
2023-02-11T14:33:29.373Z,11.27
2023-02-11T14:36:18.560Z,11.50
2023-02-11T14:38:58.208Z,10.52
2023-02-11T14:41:24.689Z,9.75
2023-02-11T14:44:03.694Z,9.15
2023-02-11T14:46:30.747Z,8.48
2023-02-11T14:48:59.594Z,14.20
2023-02-11T14:51:28.052Z,15.10
2023-02-11T14:53:57.890Z,16.70
2023-02-11T14:56:26.408Z,13.50
2023-02-11T14:58:53.894Z,10.15
2023-02-11T15:01:23.616Z,34.40
2023-02-11T15:03:50.156Z,62.08
2023-02-11T15:06:18.781Z,48.17
2023-02-11T15:09:11.428Z,44.05
2023-02-11T15:11:41.591Z,31.63
2023-02-11T15:14:10.680Z,31.48
2023-02-11T15:16:41.312Z,32.35
2023-02-11T15:19:16.704Z,23.40
2023-02-11T15:21:45.286Z,20.75
2023-02-11T15:24:24.396Z,16.05
2023-02-11T15:27:01.235Z,16.05
2023-02-11T15:29:28.471Z,14.63
2023-02-11T15:32:13.380Z,11.73
2023-02-11T15:34:40.112Z,10.70
2023-02-11T15:37:06.720Z,15.93
2023-02-11T15:39:36.755Z,20.30
2023-02-11T15:42:22.055Z,17.37
2023-02-11T15:44:56.394Z,19.50
2023-02-11T15:47:23.394Z,20.73
2023-02-11T15:49:49.913Z,21.77
2023-02-11T15:52:23.050Z,19.63
2023-02-11T15:54:49.893Z,23.57
2023-02-11T15:57:17.868Z,20.53
2023-02-11T15:59:50.615Z,15.97
2023-02-11T16:02:19.546Z,12.07
2023-02-11T16:04:53.720Z,13.03
2023-02-11T16:07:41.243Z,9.90
2023-02-11T16:10:24.681Z,9.47
2023-02-11T16:13:11.388Z,9.93
2023-02-11T16:15:40.902Z,9.83
2023-02-11T16:18:37.354Z,12.43
2023-02-11T16:21:06.118Z,13.03
2023-02-11T16:23:34.428Z,13.33
2023-02-11T16:26:09.496Z,12.63
2023-02-11T16:28:37.140Z,16.90
2023-02-11T16:31:04.434Z,14.27
2023-02-11T16:33:31.229Z,12.90
2023-02-11T16:35:57.969Z,11.60
2023-02-11T16:38:24.634Z,12.87
2023-02-11T16:40:51.540Z,10.90
2023-02-11T16:43:19.493Z,11.67
2023-02-11T16:45:46.612Z,12.13
2023-02-11T16:48:15.416Z,14.43
2023-02-11T16:50:44.536Z,15.77
2023-02-11T16:53:11.603Z,19.33
2023-02-11T16:55:38.835Z,16.37
2023-02-11T16:58:06.425Z,13.03
2023-02-11T17:00:32.988Z,13.70
2023-02-11T17:02:59.536Z,16.23
2023-02-11T17:05:26.909Z,16.90
2023-02-11T17:07:53.353Z,14.83
2023-02-11T17:10:21.172Z,13.90
2023-02-11T17:12:48.395Z,14.00
2023-02-11T17:15:15.293Z,12.17
2023-02-11T17:17:41.841Z,15.20
2023-02-11T17:20:09.403Z,12.60
2023-02-11T17:22:35.916Z,14.63
2023-02-11T17:25:02.699Z,12.50
2023-02-11T17:27:29.303Z,16.40
2023-02-11T17:29:55.827Z,14.30
2023-02-11T17:32:22.346Z,18.93
2023-02-11T17:34:49.031Z,14.57
2023-02-11T17:37:15.488Z,13.53
2023-02-11T17:39:42.056Z,13.43
2023-02-11T17:42:08.805Z,14.17
2023-02-11T17:44:35.713Z,15.07
2023-02-11T17:47:02.226Z,17.03
2023-02-11T17:49:28.806Z,17.57
2023-02-11T17:51:55.303Z,18.17
2023-02-11T17:54:21.848Z,20.57
2023-02-11T17:56:50.697Z,22.30
2023-02-11T17:59:17.416Z,20.37
2023-02-11T18:01:43.960Z,21.60
2023-02-11T18:04:12.880Z,21.03
2023-02-11T18:06:39.368Z,20.87
2023-02-11T18:09:05.892Z,18.20
2023-02-11T18:11:33.353Z,19.00
2023-02-11T18:14:00.738Z,18.60
2023-02-11T18:16:29.445Z,20.40
2023-02-11T18:18:56.957Z,25.80
2023-02-11T18:21:23.907Z,20.23
2023-02-11T18:23:50.654Z,18.43
2023-02-11T18:26:18.312Z,17.83
2023-02-11T18:28:46.070Z,18.90
2023-02-11T18:31:13.850Z,17.47
2023-02-11T18:33:41.226Z,19.63
2023-02-11T18:36:08.590Z,17.83
2023-02-11T18:38:35.375Z,19.23
2023-02-11T18:41:02.159Z,19.07
2023-02-11T18:43:33.616Z,17.93
2023-02-11T18:46:00.826Z,18.20
2023-02-11T18:48:27.684Z,18.43
2023-02-11T18:50:54.945Z,21.47
2023-02-11T18:53:22.269Z,18.53
2023-02-11T18:55:48.803Z,18.03
2023-02-11T18:58:18.063Z,21.27
2023-02-11T19:00:46.642Z,18.47
2023-02-11T19:03:13.267Z,18.20
2023-02-11T19:05:49.561Z,20.63
2023-02-11T19:08:17.195Z,18.90
2023-02-11T19:10:44.795Z,24.87
2023-02-11T19:13:11.681Z,22.17
2023-02-11T19:15:44.846Z,20.13
2023-02-11T19:18:12.188Z,20.10
2023-02-11T19:20:39.794Z,22.20
2023-02-11T19:23:06.340Z,21.20
2023-02-11T19:25:32.909Z,16.97
2023-02-11T19:28:00.326Z,18.53
2023-02-11T19:30:27.215Z,18.47
2023-02-11T19:32:57.023Z,19.73
2023-02-11T19:35:24.194Z,16.70
2023-02-11T19:37:50.680Z,19.80
2023-02-11T19:40:17.616Z,15.57
2023-02-11T19:42:44.842Z,16.70
2023-02-11T19:45:11.444Z,17.67
2023-02-11T19:47:38.276Z,18.10
2023-02-11T19:50:05.349Z,16.20
2023-02-11T19:52:32.231Z,15.87
2023-02-11T19:54:59.679Z,16.70
2023-02-11T19:57:26.258Z,18.80
2023-02-11T19:59:54.824Z,14.00
2023-02-11T20:02:21.538Z,18.10
2023-02-11T20:04:48.452Z,17.07
2023-02-11T20:07:14.945Z,18.60
2023-02-11T20:09:42.597Z,19.30
2023-02-11T20:12:09.363Z,23.67
2023-02-11T20:14:35.997Z,76.47
2023-02-11T20:17:02.537Z,26.33
2023-02-11T20:19:30.596Z,22.33
2023-02-11T20:21:57.105Z,24.60
2023-02-11T20:24:23.716Z,21.07
2023-02-11T20:26:55.116Z,18.10
2023-02-11T20:29:21.752Z,19.07
2023-02-11T20:31:48.952Z,16.97
2023-02-11T20:34:17.553Z,18.30
2023-02-11T20:36:51.343Z,16.93
2023-02-11T20:39:18.566Z,19.10
2023-02-11T20:41:46.067Z,19.90
2023-02-11T20:44:13.098Z,18.60
2023-02-11T20:46:42.065Z,21.07
2023-02-11T20:49:12.508Z,19.97
2023-02-11T20:51:39.254Z,18.95
2023-02-11T20:54:06.449Z,18.40
2023-02-11T20:56:35.371Z,18.30
2023-02-11T20:59:02.346Z,22.73
2023-02-11T21:01:30.489Z,21.63
2023-02-11T21:03:58.350Z,19.87
2023-02-11T21:06:26.698Z,19.43
2023-02-11T21:08:53.768Z,21.57
2023-02-11T21:11:20.631Z,21.17
2023-02-11T21:13:48.697Z,21.67
2023-02-11T21:16:16.392Z,20.27
2023-02-11T21:18:42.936Z,19.53
2023-02-11T21:21:09.653Z,20.07
2023-02-11T21:23:36.200Z,18.07
2023-02-11T21:26:02.685Z,21.23
2023-02-11T21:28:29.421Z,24.40
2023-02-11T21:30:57.231Z,22.93
2023-02-11T21:33:24.890Z,26.67
2023-02-11T21:35:55.149Z,22.97
2023-02-11T21:38:22.293Z,22.30
2023-02-11T21:40:48.741Z,18.57
2023-02-11T21:43:15.432Z,19.67
2023-02-11T21:45:49.830Z,18.73
2023-02-11T21:48:17.144Z,18.70
2023-02-11T21:50:45.188Z,16.70
2023-02-11T21:53:12.078Z,18.83
2023-02-11T21:55:39.304Z,17.37
2023-02-11T21:58:06.281Z,17.30
2023-02-11T22:00:33.066Z,16.73
2023-02-11T22:02:59.574Z,17.23
2023-02-11T22:05:26.069Z,17.50
2023-02-11T22:07:52.575Z,19.53
2023-02-11T22:10:19.299Z,18.33
2023-02-11T22:12:46.245Z,17.30
2023-02-11T22:15:13.316Z,15.00
2023-02-11T22:17:39.869Z,18.20
2023-02-11T22:20:06.776Z,16.17
2023-02-11T22:22:33.388Z,17.70
2023-02-11T22:25:01.863Z,16.73
2023-02-11T22:27:28.344Z,19.53
2023-02-11T22:29:54.769Z,17.33
2023-02-11T22:32:21.568Z,16.17
2023-02-11T22:34:48.165Z,17.10
2023-02-11T22:37:15.055Z,17.40
2023-02-11T22:39:42.712Z,23.60
2023-02-11T22:42:09.387Z,18.10
2023-02-11T22:44:36.944Z,19.37
2023-02-11T22:47:03.417Z,17.80
2023-02-11T22:49:32.412Z,15.37
2023-02-11T22:51:59.302Z,17.63
2023-02-11T22:54:25.823Z,18.57
2023-02-11T22:56:52.506Z,18.90
2023-02-11T22:59:19.438Z,18.57
2023-02-11T23:01:46.206Z,15.80
2023-02-11T23:04:14.341Z,17.60
2023-02-11T23:06:40.836Z,15.87
2023-02-11T23:09:08.209Z,15.70
2023-02-11T23:11:35.427Z,18.03
2023-02-11T23:14:02.375Z,16.07
2023-02-11T23:16:31.143Z,19.43
2023-02-11T23:19:02.337Z,17.00
2023-02-11T23:21:30.339Z,14.95
2023-02-11T23:23:58.180Z,17.60
2023-02-11T23:26:24.870Z,17.50
2023-02-11T23:28:51.543Z,18.33
2023-02-11T23:31:19.756Z,18.43
2023-02-11T23:33:46.813Z,19.40
2023-02-11T23:36:13.505Z,20.67
2023-02-11T23:38:40.012Z,17.77
2023-02-11T23:41:06.580Z,19.27
2023-02-11T23:43:33.130Z,18.33
2023-02-11T23:45:59.644Z,15.40
2023-02-11T23:48:26.486Z,13.30
2023-02-11T23:50:52.972Z,13.90
2023-02-11T23:53:19.465Z,11.03
2023-02-11T23:55:46.154Z,11.13
2023-02-11T23:58:13.383Z,11.57
